createdAt,value
2023-03-29T00:01:56.563Z,9.48
2023-03-29T00:06:58.042Z,9.64
2023-03-29T00:12:00.258Z,9.86
2023-03-29T00:17:01.739Z,9.57
2023-03-29T00:22:05.807Z,9.16
2023-03-29T00:27:07.282Z,9.19
2023-03-29T00:32:08.750Z,9.00
2023-03-29T00:37:10.206Z,9.10
2023-03-29T00:42:13.002Z,9.11
2023-03-29T00:47:14.477Z,9.20
2023-03-29T00:52:15.980Z,9.21
2023-03-29T00:57:17.514Z,9.63
2023-03-29T01:02:22.082Z,9.34
2023-03-29T01:07:48.156Z,8.97
2023-03-29T01:12:56.248Z,9.24
2023-03-29T01:17:58.385Z,9.19
2023-03-29T01:23:45.805Z,9.20
2023-03-29T01:28:51.657Z,8.95
2023-03-29T01:33:57.576Z,9.11
2023-03-29T01:39:00.711Z,9.32
2023-03-29T01:44:04.934Z,9.45
2023-03-29T01:49:12.127Z,9.55
2023-03-29T01:54:19.614Z,9.69
2023-03-29T01:59:22.660Z,9.54
2023-03-29T02:04:27.595Z,9.67
2023-03-29T02:09:29.512Z,9.33
2023-03-29T02:14:30.977Z,9.14
2023-03-29T02:19:32.497Z,9.07
2023-03-29T02:24:33.955Z,9.38
2023-03-29T02:29:35.405Z,9.71
2023-03-29T02:34:47.649Z,9.89
2023-03-29T02:39:49.666Z,10.00
2023-03-29T02:44:54.043Z,9.94
2023-03-29T02:49:55.673Z,9.93
2023-03-29T02:54:57.142Z,10.02
2023-03-29T02:59:58.724Z,10.43
2023-03-29T03:05:00.198Z,10.15
2023-03-29T03:10:03.840Z,10.15
2023-03-29T03:15:05.727Z,10.37
2023-03-29T03:20:13.954Z,10.45
2023-03-29T03:25:16.975Z,10.39
2023-03-29T03:30:18.833Z,10.42
2023-03-29T03:35:21.068Z,10.10
2023-03-29T03:40:22.549Z,10.24
2023-03-29T03:45:24.697Z,10.14
2023-03-29T03:50:26.162Z,10.12
2023-03-29T03:55:29.927Z,10.11
2023-03-29T04:00:31.397Z,10.29
2023-03-29T04:05:32.841Z,10.04
2023-03-29T04:10:34.704Z,10.13
2023-03-29T04:15:38.943Z,9.73
2023-03-29T04:20:40.446Z,9.75
2023-03-29T04:25:41.923Z,10.17
2023-03-29T04:30:43.544Z,10.12
2023-03-29T04:35:45.079Z,10.13
2023-03-29T04:40:46.545Z,10.48
2023-03-29T04:45:48.076Z,10.37
2023-03-29T04:50:49.819Z,10.08
2023-03-29T04:55:52.394Z,10.47
2023-03-29T05:00:58.177Z,10.30
2023-03-29T05:06:07.200Z,10.32
2023-03-29T05:11:10.220Z,10.17
2023-03-29T05:16:11.734Z,9.96
2023-03-29T05:21:13.316Z,10.24
2023-03-29T05:26:15.357Z,10.46
2023-03-29T05:31:17.420Z,10.43
2023-03-29T05:36:19.260Z,10.54
2023-03-29T05:41:20.714Z,10.07
2023-03-29T05:46:22.216Z,10.35
2023-03-29T05:51:24.643Z,10.25
2023-03-29T05:56:26.824Z,10.19
2023-03-29T06:01:28.580Z,10.37
2023-03-29T06:06:30.069Z,10.39
2023-03-29T06:11:33.097Z,10.54
2023-03-29T06:16:34.627Z,10.74
2023-03-29T06:21:36.129Z,10.61
2023-03-29T06:26:37.581Z,10.70
2023-03-29T06:31:39.100Z,10.59
2023-03-29T06:36:40.571Z,10.67
2023-03-29T06:41:42.472Z,10.82
2023-03-29T06:46:44.976Z,10.32
2023-03-29T06:51:46.887Z,10.49
2023-03-29T06:56:48.713Z,10.58
2023-03-29T07:01:50.276Z,10.74
2023-03-29T07:07:01.216Z,10.18
2023-03-29T07:12:02.672Z,10.46
2023-03-29T07:17:05.716Z,10.57
2023-03-29T07:22:08.097Z,10.51
2023-03-29T07:27:09.699Z,10.69
2023-03-29T07:32:11.312Z,10.51
2023-03-29T07:37:12.833Z,10.92
2023-03-29T07:42:14.350Z,10.87
2023-03-29T07:47:15.813Z,10.50
2023-03-29T07:52:17.325Z,10.80
2023-03-29T07:57:18.868Z,10.97
2023-03-29T08:02:21.064Z,10.87
2023-03-29T08:07:23.922Z,11.00
2023-03-29T08:12:25.686Z,10.33
2023-03-29T08:17:27.165Z,10.90
2023-03-29T08:22:28.716Z,11.11
2023-03-29T08:27:30.226Z,11.12
2023-03-29T08:32:31.780Z,11.15
2023-03-29T08:37:33.270Z,11.35
2023-03-29T08:42:56.732Z,11.59
2023-03-29T08:48:04.062Z,11.40
2023-03-29T08:53:16.894Z,11.40
2023-03-29T08:58:20.495Z,11.52
2023-03-29T09:03:27.818Z,11.55
2023-03-29T09:08:29.347Z,11.67
2023-03-29T09:13:38.724Z,11.60
2023-03-29T09:18:42.443Z,11.81
2023-03-29T09:23:55.779Z,11.89
2023-03-29T09:29:20.415Z,12.08
2023-03-29T09:34:42.108Z,11.67
2023-03-29T09:39:43.745Z,12.09
2023-03-29T09:44:50.826Z,12.21
2023-03-29T09:49:55.275Z,12.34
2023-03-29T09:54:56.835Z,12.33
2023-03-29T09:59:58.944Z,12.37
2023-03-29T10:05:04.273Z,12.18
2023-03-29T10:10:09.460Z,12.23
2023-03-29T10:15:23.097Z,12.11
2023-03-29T10:20:30.698Z,12.08
2023-03-29T10:25:32.836Z,12.33
2023-03-29T10:30:37.841Z,12.21
2023-03-29T10:35:41.453Z,12.43
2023-03-29T10:40:49.562Z,12.47
2023-03-29T10:45:55.070Z,12.62
2023-03-29T10:51:00.948Z,12.66
2023-03-29T10:56:37.018Z,12.64
2023-03-29T11:01:56.578Z,12.75
2023-03-29T11:07:12.055Z,12.78
2023-03-29T11:12:41.581Z,12.74
2023-03-29T11:17:57.909Z,12.84
2023-03-29T11:23:25.552Z,12.78
2023-03-29T11:28:28.502Z,12.66
2023-03-29T11:33:37.483Z,12.79
2023-03-29T11:38:51.131Z,13.01
2023-03-29T11:44:08.422Z,13.08
2023-03-29T11:49:19.406Z,13.04
2023-03-29T11:54:42.534Z,13.20
2023-03-29T11:59:54.752Z,13.10
2023-03-29T12:04:57.274Z,13.21
2023-03-29T12:10:01.631Z,13.38
2023-03-29T12:15:19.974Z,13.49
2023-03-29T12:20:28.120Z,13.26
2023-03-29T12:25:52.188Z,13.47
2023-03-29T12:30:58.356Z,13.56
2023-03-29T12:36:21.897Z,13.63
2023-03-29T12:41:23.583Z,13.60
2023-03-29T12:46:26.384Z,13.70
2023-03-29T12:51:34.496Z,13.68
2023-03-29T12:56:58.424Z,13.82
2023-03-29T13:02:02.749Z,13.93
2023-03-29T13:07:04.892Z,14.14
2023-03-29T13:12:08.950Z,14.23
2023-03-29T13:17:27.910Z,14.27
2023-03-29T13:22:53.838Z,14.00
2023-03-29T13:28:13.018Z,14.01
2023-03-29T13:33:34.385Z,14.18
2023-03-29T13:38:46.929Z,14.26
2023-03-29T13:43:55.310Z,14.22
2023-03-29T13:49:23.913Z,14.29
2023-03-29T13:54:36.516Z,14.39
2023-03-29T14:00:00.661Z,14.36
2023-03-29T14:05:04.062Z,14.47
2023-03-29T14:10:05.727Z,14.49
2023-03-29T14:15:07.748Z,14.23
2023-03-29T14:20:09.618Z,14.45
2023-03-29T14:25:17.190Z,14.44
2023-03-29T14:30:20.351Z,14.41
2023-03-29T14:35:27.382Z,14.43
2023-03-29T14:40:29.782Z,14.49
2023-03-29T14:45:32.097Z,14.39
2023-03-29T14:50:33.621Z,14.41
2023-03-29T14:55:36.567Z,14.43
2023-03-29T15:00:39.320Z,14.53
2023-03-29T15:05:41.705Z,14.40
2023-03-29T15:10:45.088Z,14.37
2023-03-29T15:15:46.700Z,14.38
2023-03-29T15:20:48.278Z,14.42
2023-03-29T15:25:58.047Z,14.37
2023-03-29T15:31:08.264Z,14.24
2023-03-29T15:36:11.219Z,13.89
2023-03-29T15:41:16.120Z,13.91
2023-03-29T15:46:17.651Z,13.74
2023-03-29T15:51:19.128Z,13.87
2023-03-29T15:56:20.776Z,14.11
2023-03-29T16:01:35.507Z,14.03
2023-03-29T16:06:36.975Z,14.12
2023-03-29T16:11:39.434Z,14.12
2023-03-29T16:16:41.032Z,14.13
2023-03-29T16:21:43.104Z,14.21
2023-03-29T16:26:44.564Z,13.85
2023-03-29T16:31:46.755Z,14.07
2023-03-29T16:36:49.072Z,14.14
2023-03-29T16:41:50.906Z,14.12
2023-03-29T16:46:57.424Z,14.04
2023-03-29T16:51:59.795Z,14.11
2023-03-29T16:57:01.277Z,14.00
2023-03-29T17:02:02.780Z,14.06
2023-03-29T17:07:04.254Z,14.16
2023-03-29T17:12:05.828Z,14.06
2023-03-29T17:17:07.532Z,13.94
2023-03-29T17:22:08.999Z,14.12
2023-03-29T17:27:10.699Z,14.17
2023-03-29T17:32:12.187Z,14.13
2023-03-29T17:37:13.875Z,13.65
2023-03-29T17:42:16.165Z,13.99
2023-03-29T17:47:17.650Z,13.93
2023-03-29T17:52:19.262Z,13.87
2023-03-29T17:57:20.923Z,14.06
2023-03-29T18:02:23.467Z,14.02
2023-03-29T18:07:25.055Z,14.05
2023-03-29T18:12:27.313Z,13.98
2023-03-29T18:17:28.798Z,14.12
2023-03-29T18:22:33.140Z,14.06
2023-03-29T18:27:34.933Z,13.94
2023-03-29T18:32:36.611Z,14.13
2023-03-29T18:37:38.641Z,13.95
2023-03-29T18:42:40.384Z,14.03
2023-03-29T18:47:44.050Z,13.98
2023-03-29T18:52:46.985Z,13.97
2023-03-29T18:57:48.332Z,13.86
2023-03-29T19:02:49.885Z,13.75
2023-03-29T19:07:54.164Z,14.04
2023-03-29T19:12:56.029Z,13.91
2023-03-29T19:17:57.578Z,13.93
2023-03-29T19:22:59.067Z,13.65
2023-03-29T19:28:00.570Z,13.80
2023-03-29T19:33:02.142Z,13.48
2023-03-29T19:38:03.650Z,13.68
2023-03-29T19:43:05.097Z,13.69
2023-03-29T19:48:07.061Z,13.82
2023-03-29T19:53:08.992Z,13.84
2023-03-29T19:58:10.499Z,13.73
2023-03-29T20:03:13.852Z,13.73
2023-03-29T20:08:15.634Z,13.64
2023-03-29T20:13:24.455Z,13.43
2023-03-29T20:18:33.312Z,13.67
2023-03-29T20:23:35.155Z,13.64
2023-03-29T20:28:39.427Z,13.61
2023-03-29T20:33:41.418Z,13.56
2023-03-29T20:38:42.882Z,13.92
2023-03-29T20:43:46.119Z,13.59
2023-03-29T20:48:53.337Z,13.51
2023-03-29T20:54:02.780Z,13.86
2023-03-29T20:59:04.381Z,13.73
2023-03-29T21:04:08.227Z,13.90
2023-03-29T21:09:09.699Z,13.55
2023-03-29T21:14:11.176Z,13.43
2023-03-29T21:19:12.850Z,13.25
2023-03-29T21:24:14.360Z,13.63
2023-03-29T21:29:15.848Z,13.26
2023-03-29T21:34:17.294Z,13.46
2023-03-29T21:39:18.743Z,12.97
2023-03-29T21:44:20.337Z,13.03
2023-03-29T21:49:21.817Z,13.57
2023-03-29T21:54:23.273Z,13.45
2023-03-29T21:59:24.748Z,13.19
2023-03-29T22:04:35.831Z,13.14
2023-03-29T22:09:41.193Z,13.24
2023-03-29T22:14:42.675Z,13.08
2023-03-29T22:19:44.169Z,13.32
2023-03-29T22:24:45.693Z,12.65
2023-03-29T22:29:47.138Z,13.04
2023-03-29T22:34:48.578Z,13.37
2023-03-29T22:39:50.075Z,13.43
2023-03-29T22:44:51.548Z,13.11
2023-03-29T22:49:53.025Z,13.61
2023-03-29T22:54:54.470Z,13.04
2023-03-29T22:59:55.928Z,12.96
2023-03-29T23:04:57.430Z,12.97
2023-03-29T23:09:59.036Z,12.69
2023-03-29T23:15:00.523Z,12.97
2023-03-29T23:20:02.065Z,12.77
2023-03-29T23:25:03.619Z,12.43
2023-03-29T23:30:07.472Z,12.46
2023-03-29T23:35:09.053Z,12.75
2023-03-29T23:40:16.907Z,12.95
2023-03-29T23:45:18.493Z,12.46
2023-03-29T23:50:20.016Z,12.41
2023-03-29T23:55:21.482Z,12.03
